createdAt,value
2023-08-15T00:02:22.396Z,2.72
2023-08-15T00:04:48.954Z,2.90
2023-08-15T00:07:15.558Z,2.72
2023-08-15T00:09:42.084Z,2.50
2023-08-15T00:12:09.155Z,2.17
2023-08-15T00:14:35.710Z,2.97
2023-08-15T00:17:02.537Z,3.00
2023-08-15T00:19:29.114Z,2.80
2023-08-15T00:21:55.691Z,2.90
2023-08-15T00:24:22.229Z,2.88
2023-08-15T00:26:48.801Z,2.72
2023-08-15T00:29:15.420Z,2.63
2023-08-15T00:31:41.991Z,2.70
2023-08-15T00:34:10.805Z,2.30
2023-08-15T00:36:37.308Z,2.63
2023-08-15T00:39:04.102Z,2.60
2023-08-15T00:41:31.425Z,2.47
2023-08-15T00:43:59.526Z,2.75
2023-08-15T00:46:29.351Z,2.60
2023-08-15T00:48:57.530Z,2.13
2023-08-15T00:51:24.782Z,2.38
2023-08-15T00:53:51.963Z,2.63
2023-08-15T00:56:19.968Z,2.38
2023-08-15T00:58:47.008Z,2.78
2023-08-15T01:01:17.219Z,2.42
2023-08-15T01:03:44.363Z,2.72
2023-08-15T01:06:11.097Z,2.70
2023-08-15T01:08:37.669Z,3.05
2023-08-15T01:11:21.619Z,2.47
2023-08-15T01:14:09.878Z,2.33
2023-08-15T01:16:45.288Z,2.40
2023-08-15T01:19:47.997Z,2.88
2023-08-15T01:22:26.100Z,2.40
2023-08-15T01:24:52.804Z,2.90
2023-08-15T01:27:19.804Z,2.70
2023-08-15T01:29:46.834Z,2.78
2023-08-15T01:32:44.140Z,2.67
2023-08-15T01:35:18.426Z,2.78
2023-08-15T01:37:48.951Z,2.42
2023-08-15T01:40:19.676Z,2.60
2023-08-15T01:42:47.777Z,2.65
2023-08-15T01:45:14.723Z,2.33
2023-08-15T01:47:41.421Z,2.47
2023-08-15T01:50:10.595Z,2.10
2023-08-15T01:52:37.159Z,2.20
2023-08-15T01:55:03.841Z,2.63
2023-08-15T01:57:30.374Z,2.20
2023-08-15T01:59:56.917Z,2.38
2023-08-15T02:02:23.528Z,2.50
2023-08-15T02:04:50.124Z,1.88
2023-08-15T02:07:16.724Z,2.53
2023-08-15T02:09:43.250Z,2.38
2023-08-15T02:12:09.822Z,2.80
2023-08-15T02:14:36.335Z,2.70
2023-08-15T02:17:02.903Z,2.80
2023-08-15T02:19:29.420Z,2.83
2023-08-15T02:21:55.956Z,2.80
2023-08-15T02:24:22.491Z,2.50
2023-08-15T02:26:48.990Z,2.88
2023-08-15T02:29:16.459Z,3.13
2023-08-15T02:31:48.455Z,4.50
2023-08-15T02:34:18.836Z,2.88
2023-08-15T02:36:48.344Z,2.80
2023-08-15T02:39:16.992Z,2.80
2023-08-15T02:41:54.839Z,2.47
2023-08-15T02:44:21.421Z,3.05
2023-08-15T02:46:47.983Z,3.08
2023-08-15T02:49:14.558Z,2.85
2023-08-15T02:51:41.077Z,2.83
2023-08-15T02:54:07.736Z,2.60
2023-08-15T02:56:35.267Z,3.47
2023-08-15T02:59:01.980Z,3.22
2023-08-15T03:01:28.613Z,2.90
2023-08-15T03:03:55.121Z,2.95
2023-08-15T03:06:21.645Z,3.13
2023-08-15T03:08:48.894Z,2.92
2023-08-15T03:11:31.040Z,2.88
2023-08-15T03:13:59.436Z,2.88
2023-08-15T03:16:27.883Z,2.60
2023-08-15T03:18:54.659Z,2.90
2023-08-15T03:21:21.266Z,2.70
2023-08-15T03:23:47.839Z,2.60
2023-08-15T03:26:14.460Z,2.92
2023-08-15T03:28:40.965Z,3.60
2023-08-15T03:31:10.024Z,3.15
2023-08-15T03:33:37.121Z,2.65
2023-08-15T03:36:04.069Z,2.95
2023-08-15T03:38:30.632Z,2.65
2023-08-15T03:41:07.121Z,2.88
2023-08-15T03:43:35.167Z,2.97
2023-08-15T03:46:03.053Z,2.92
2023-08-15T03:48:32.675Z,2.97
2023-08-15T03:51:00.952Z,2.42
2023-08-15T03:53:27.940Z,2.90
2023-08-15T03:56:01.519Z,2.80
2023-08-15T03:58:28.370Z,2.95
2023-08-15T04:00:54.984Z,2.67
2023-08-15T04:03:21.639Z,2.60
2023-08-15T04:05:48.789Z,2.63
2023-08-15T04:08:17.604Z,2.88
2023-08-15T04:11:04.510Z,3.03
2023-08-15T04:13:31.055Z,2.55
2023-08-15T04:15:57.599Z,2.42
2023-08-15T04:18:24.131Z,2.50
2023-08-15T04:20:50.631Z,2.63
2023-08-15T04:23:17.172Z,3.03
2023-08-15T04:25:44.054Z,2.20
2023-08-15T04:28:10.641Z,2.50
2023-08-15T04:30:37.230Z,2.53
2023-08-15T04:33:03.957Z,2.42
2023-08-15T04:35:30.562Z,2.63
2023-08-15T04:37:57.446Z,2.90
2023-08-15T04:40:35.360Z,3.30
2023-08-15T04:43:02.746Z,2.40
2023-08-15T04:45:29.413Z,2.60
2023-08-15T04:47:57.026Z,2.67
2023-08-15T04:50:24.026Z,2.78
2023-08-15T04:52:50.948Z,2.97
2023-08-15T04:55:17.687Z,2.53
2023-08-15T04:57:44.307Z,2.33
2023-08-15T05:00:12.286Z,2.55
2023-08-15T05:02:39.967Z,2.70
2023-08-15T05:05:07.807Z,2.30
2023-08-15T05:07:34.648Z,2.63
2023-08-15T05:10:13.699Z,2.50
2023-08-15T05:12:43.302Z,2.90
2023-08-15T05:15:18.012Z,2.88
2023-08-15T05:17:45.159Z,2.78
2023-08-15T05:20:40.909Z,2.63
2023-08-15T05:23:07.440Z,2.75
2023-08-15T05:25:33.986Z,2.65
2023-08-15T05:28:07.107Z,2.80
2023-08-15T05:30:34.080Z,2.70
2023-08-15T05:33:01.378Z,2.72
2023-08-15T05:35:29.399Z,2.85
2023-08-15T05:37:56.214Z,3.13
2023-08-15T05:40:22.952Z,2.72
2023-08-15T05:42:49.581Z,2.95
2023-08-15T05:45:16.483Z,3.03
2023-08-15T05:47:43.079Z,3.42
2023-08-15T05:50:10.287Z,3.47
2023-08-15T05:52:36.893Z,3.03
2023-08-15T05:55:05.636Z,2.58
2023-08-15T05:57:42.447Z,2.30
2023-08-15T06:00:09.882Z,1.88
2023-08-15T06:02:40.026Z,1.45
2023-08-15T06:05:07.003Z,2.00
2023-08-15T06:07:33.686Z,1.80
2023-08-15T06:10:00.351Z,1.70
2023-08-15T06:12:42.240Z,2.00
2023-08-15T06:15:47.430Z,1.58
2023-08-15T06:18:14.520Z,2.10
2023-08-15T06:20:41.297Z,1.83
2023-08-15T06:23:07.841Z,1.60
2023-08-15T06:25:48.383Z,1.60
2023-08-15T06:28:15.019Z,1.50
2023-08-15T06:30:42.996Z,1.60
2023-08-15T06:33:09.662Z,1.35
2023-08-15T06:35:43.418Z,1.70
2023-08-15T06:38:09.940Z,1.73
2023-08-15T06:40:36.828Z,1.60
2023-08-15T06:43:03.474Z,2.35
2023-08-15T06:45:30.087Z,1.92
2023-08-15T06:47:56.708Z,1.92
2023-08-15T06:50:23.392Z,1.88
2023-08-15T06:52:49.962Z,1.73
2023-08-15T06:55:16.634Z,1.80
2023-08-15T06:57:43.789Z,2.03
2023-08-15T07:00:13.303Z,1.88
2023-08-15T07:02:40.772Z,1.83
2023-08-15T07:05:11.720Z,1.75
2023-08-15T07:07:38.550Z,1.77
2023-08-15T07:10:08.517Z,1.83
2023-08-15T07:12:54.196Z,1.92
2023-08-15T07:15:24.849Z,1.90
2023-08-15T07:17:51.455Z,2.10
2023-08-15T07:20:18.087Z,1.80
2023-08-15T07:22:45.164Z,1.60
2023-08-15T07:25:12.588Z,2.00
2023-08-15T07:27:39.708Z,2.33
2023-08-15T07:30:07.311Z,1.75
2023-08-15T07:32:37.565Z,1.77
2023-08-15T07:35:05.613Z,1.60
2023-08-15T07:37:32.489Z,1.60
2023-08-15T07:40:04.838Z,1.58
2023-08-15T07:42:31.506Z,2.00
2023-08-15T07:44:58.100Z,1.77
2023-08-15T07:47:24.649Z,1.55
2023-08-15T07:49:51.487Z,1.50
2023-08-15T07:52:18.876Z,1.48
2023-08-15T07:54:46.764Z,1.58
2023-08-15T07:57:13.266Z,1.92
2023-08-15T07:59:41.200Z,1.70
2023-08-15T08:02:07.730Z,1.70
2023-08-15T08:04:38.258Z,1.60
2023-08-15T08:07:04.837Z,1.40
2023-08-15T08:09:31.457Z,1.55
2023-08-15T08:11:57.996Z,1.67
2023-08-15T08:14:24.573Z,1.58
2023-08-15T08:16:51.109Z,1.35
2023-08-15T08:19:17.659Z,1.50
2023-08-15T08:21:44.239Z,1.40
2023-08-15T08:24:10.757Z,1.48
2023-08-15T08:26:37.987Z,1.48
2023-08-15T08:29:06.605Z,1.38
2023-08-15T08:31:33.202Z,1.45
2023-08-15T08:33:59.716Z,1.30
2023-08-15T08:36:26.276Z,1.13
2023-08-15T08:38:52.778Z,1.20
2023-08-15T08:41:19.369Z,1.10
2023-08-15T08:43:46.402Z,1.20
2023-08-15T08:46:14.129Z,1.20
2023-08-15T08:48:42.511Z,1.17
2023-08-15T08:53:36.174Z,1.10
2023-08-15T08:56:03.265Z,0.98
2023-08-15T08:58:31.120Z,1.15
2023-08-15T09:01:02.631Z,1.57
2023-08-15T09:03:29.544Z,1.30
2023-08-15T09:05:57.412Z,1.00
2023-08-15T09:08:24.077Z,1.00
2023-08-15T09:10:50.658Z,1.13
2023-08-15T09:13:23.422Z,1.20
2023-08-15T09:15:51.371Z,1.20
2023-08-15T09:18:22.638Z,1.20
2023-08-15T09:20:49.349Z,1.20
2023-08-15T09:23:17.470Z,1.40
2023-08-15T09:25:44.087Z,1.17
2023-08-15T09:28:10.863Z,1.60
2023-08-15T09:30:37.503Z,1.10
2023-08-15T09:33:07.144Z,1.10
2023-08-15T09:35:35.520Z,1.20
2023-08-15T09:38:08.583Z,1.05
2023-08-15T09:40:35.701Z,1.30
2023-08-15T09:43:03.797Z,1.15
2023-08-15T09:45:31.061Z,1.20
2023-08-15T09:47:59.371Z,1.02
2023-08-15T09:50:27.046Z,1.02
2023-08-15T09:52:55.696Z,1.20
2023-08-15T09:55:22.274Z,1.20
2023-08-15T09:57:49.181Z,1.40
2023-08-15T10:00:17.685Z,1.23
2023-08-15T10:02:49.467Z,1.10
2023-08-15T10:05:20.304Z,0.98
2023-08-15T10:07:47.937Z,1.10
2023-08-15T10:10:16.511Z,1.40
2023-08-15T10:12:45.975Z,1.15
2023-08-15T10:15:13.237Z,1.10
2023-08-15T10:17:40.435Z,1.23
2023-08-15T10:20:11.699Z,1.30
2023-08-15T10:22:40.210Z,1.35
2023-08-15T10:25:24.943Z,1.00
2023-08-15T10:27:56.506Z,1.23
2023-08-15T10:30:37.267Z,1.00
2023-08-15T10:33:13.619Z,1.20
2023-08-15T10:35:50.979Z,1.10
2023-08-15T10:38:28.378Z,1.27
2023-08-15T10:41:05.210Z,1.35
2023-08-15T10:43:36.068Z,1.50
2023-08-15T10:46:08.371Z,1.40
2023-08-15T10:49:01.785Z,1.42
2023-08-15T10:51:31.469Z,1.33
2023-08-15T10:53:59.782Z,1.35
2023-08-15T10:56:31.615Z,1.35
2023-08-15T10:59:07.178Z,1.30
2023-08-15T11:01:35.599Z,1.20
2023-08-15T11:04:03.095Z,1.10
2023-08-15T11:06:31.756Z,1.38
2023-08-15T11:08:59.534Z,1.75
2023-08-15T11:11:26.285Z,1.15
2023-08-15T11:13:54.275Z,1.30
2023-08-15T11:16:22.464Z,1.30
2023-08-15T11:18:49.937Z,0.95
2023-08-15T11:21:18.516Z,1.25
2023-08-15T11:23:48.461Z,1.30
2023-08-15T11:26:17.107Z,1.30
2023-08-15T11:28:44.121Z,1.60
2023-08-15T11:33:43.472Z,1.45
2023-08-15T11:36:13.329Z,1.38
2023-08-15T11:38:40.326Z,1.60
2023-08-15T11:41:07.005Z,1.50
2023-08-15T11:43:34.978Z,1.42
2023-08-15T11:48:32.796Z,1.23
2023-08-15T11:50:59.901Z,1.55
2023-08-15T11:53:26.781Z,1.60
2023-08-15T11:55:53.679Z,1.23
2023-08-15T11:58:33.033Z,1.48
2023-08-15T12:01:07.690Z,1.45
2023-08-15T12:03:35.849Z,1.52
2023-08-15T12:06:15.078Z,1.50
2023-08-15T12:08:46.201Z,1.60
2023-08-15T12:11:13.616Z,1.38
2023-08-15T12:13:41.523Z,1.40
2023-08-15T12:18:36.424Z,1.58
2023-08-15T12:21:04.977Z,1.33
2023-08-15T12:23:31.737Z,1.50
2023-08-15T12:25:58.447Z,1.50
2023-08-15T12:28:25.197Z,1.48
2023-08-15T12:30:55.954Z,1.63
2023-08-15T12:33:39.286Z,1.45
2023-08-15T12:36:07.879Z,1.50
2023-08-15T12:38:34.439Z,1.55
2023-08-15T12:41:01.199Z,1.75
2023-08-15T12:43:27.737Z,1.40
2023-08-15T12:45:55.868Z,1.60
2023-08-15T12:48:22.634Z,1.40
2023-08-15T12:50:49.153Z,1.63
2023-08-15T12:53:15.735Z,1.80
2023-08-15T12:55:42.285Z,1.63
2023-08-15T12:58:09.218Z,1.63
2023-08-15T13:00:35.913Z,1.50
2023-08-15T13:03:04.251Z,1.45
2023-08-15T13:05:30.801Z,1.45
2023-08-15T13:07:57.399Z,1.33
2023-08-15T13:10:24.008Z,1.50
2023-08-15T13:12:50.537Z,1.60
2023-08-15T13:15:17.135Z,1.90
2023-08-15T13:17:45.643Z,1.63
2023-08-15T13:20:13.258Z,1.40
2023-08-15T13:22:39.795Z,1.50
2023-08-15T13:25:07.338Z,1.63
2023-08-15T13:27:33.978Z,1.60
2023-08-15T13:30:00.532Z,1.60
2023-08-15T13:32:27.065Z,1.55
2023-08-15T13:34:53.648Z,2.00
2023-08-15T13:37:20.322Z,1.73
2023-08-15T13:39:47.253Z,1.50
2023-08-15T13:42:23.231Z,1.67
2023-08-15T13:44:53.647Z,1.67
2023-08-15T13:47:20.667Z,1.42
2023-08-15T13:49:47.667Z,1.30
2023-08-15T13:52:14.217Z,1.40
2023-08-15T13:54:40.743Z,1.60
2023-08-15T13:57:07.464Z,1.70
2023-08-15T13:59:34.048Z,1.40
2023-08-15T14:02:00.790Z,1.50
2023-08-15T14:04:29.197Z,1.63
2023-08-15T14:06:59.863Z,1.80
2023-08-15T14:09:26.518Z,1.45
2023-08-15T14:11:53.027Z,1.48
2023-08-15T14:14:19.684Z,1.50
2023-08-15T14:16:46.366Z,1.48
2023-08-15T14:19:13.660Z,1.67
2023-08-15T14:21:40.238Z,1.40
2023-08-15T14:24:08.370Z,1.50
2023-08-15T14:26:34.969Z,1.52
2023-08-15T14:29:01.505Z,1.50
2023-08-15T14:31:28.070Z,1.52
2023-08-15T14:33:54.621Z,1.45
2023-08-15T14:36:21.173Z,1.42
2023-08-15T14:38:47.772Z,1.25
2023-08-15T14:41:14.484Z,1.70
2023-08-15T14:43:41.023Z,1.58
2023-08-15T14:46:07.583Z,1.50
2023-08-15T14:48:34.169Z,1.60
2023-08-15T14:51:00.888Z,1.75
2023-08-15T14:53:27.699Z,1.73
2023-08-15T14:55:54.771Z,1.50
2023-08-15T14:58:21.322Z,1.45
2023-08-15T15:00:48.031Z,1.55
2023-08-15T15:03:14.808Z,1.52
2023-08-15T15:05:41.473Z,1.70
2023-08-15T15:08:08.619Z,1.50
2023-08-15T15:10:36.321Z,1.83
2023-08-15T15:13:03.595Z,1.40
2023-08-15T15:15:45.945Z,1.27
2023-08-15T15:18:17.282Z,1.40
2023-08-15T15:20:44.025Z,1.52
2023-08-15T15:23:10.618Z,1.55
2023-08-15T15:25:37.166Z,1.88
2023-08-15T15:28:03.927Z,1.60
2023-08-15T15:30:30.509Z,1.77
2023-08-15T15:32:57.315Z,1.25
2023-08-15T15:35:23.916Z,1.67
2023-08-15T15:37:50.861Z,1.60
2023-08-15T15:40:17.445Z,2.08
2023-08-15T15:42:44.004Z,1.80
2023-08-15T15:45:10.740Z,1.77
2023-08-15T15:47:37.356Z,1.90
2023-08-15T15:50:04.072Z,1.80
2023-08-15T15:52:30.694Z,2.10
2023-08-15T15:54:57.276Z,1.83
2023-08-15T15:57:23.894Z,1.77
2023-08-15T15:59:50.490Z,1.80
2023-08-15T16:02:17.116Z,1.80
2023-08-15T16:04:47.577Z,1.85
2023-08-15T16:07:16.627Z,1.80
2023-08-15T16:09:43.462Z,1.77
2023-08-15T16:12:10.199Z,1.77
2023-08-15T16:14:36.947Z,2.10
2023-08-15T16:17:04.631Z,1.73
2023-08-15T16:19:31.223Z,2.17
2023-08-15T16:21:57.779Z,1.70
2023-08-15T16:24:24.465Z,2.10
2023-08-15T16:26:51.359Z,1.98
2023-08-15T16:29:17.908Z,1.88
2023-08-15T16:31:44.594Z,2.05
2023-08-15T16:34:11.243Z,1.92
2023-08-15T16:36:37.824Z,2.22
2023-08-15T16:39:04.748Z,2.30
2023-08-15T16:41:31.330Z,2.50
2023-08-15T16:43:57.899Z,2.30
2023-08-15T16:46:24.494Z,2.10
2023-08-15T16:48:51.283Z,2.08
2023-08-15T16:51:17.810Z,2.30
2023-08-15T16:53:44.358Z,2.30
2023-08-15T16:56:10.968Z,2.40
2023-08-15T16:58:37.528Z,2.58
2023-08-15T17:01:04.231Z,2.85
2023-08-15T17:03:30.960Z,2.42
2023-08-15T17:05:57.926Z,2.55
2023-08-15T17:08:24.560Z,2.60
2023-08-15T17:10:51.125Z,2.40
2023-08-15T17:13:17.671Z,2.28
2023-08-15T17:15:46.363Z,2.10
2023-08-15T17:18:12.974Z,2.40
2023-08-15T17:20:39.566Z,2.40
2023-08-15T17:23:06.175Z,2.70
2023-08-15T17:25:32.947Z,2.70
2023-08-15T17:27:59.576Z,2.38
2023-08-15T17:30:26.109Z,2.13
2023-08-15T17:32:52.717Z,2.17
2023-08-15T17:35:19.308Z,2.35
2023-08-15T17:37:47.877Z,2.13
2023-08-15T17:40:15.434Z,2.25
2023-08-15T17:42:41.977Z,2.10
2023-08-15T17:45:09.164Z,1.92
2023-08-15T17:47:35.916Z,2.10
2023-08-15T17:50:02.569Z,1.80
2023-08-15T17:52:29.158Z,2.05
2023-08-15T17:54:55.737Z,1.83
2023-08-15T17:57:22.428Z,1.70
2023-08-15T17:59:49.050Z,1.77
2023-08-15T18:02:15.711Z,1.83
2023-08-15T18:04:42.321Z,2.20
2023-08-15T18:07:08.975Z,1.88
2023-08-15T18:09:35.562Z,1.83
2023-08-15T18:12:02.757Z,1.90
2023-08-15T18:14:30.172Z,2.17
2023-08-15T18:16:56.857Z,2.22
2023-08-15T18:19:23.889Z,1.98
2023-08-15T18:21:53.335Z,1.90
2023-08-15T18:24:19.952Z,1.83
2023-08-15T18:26:46.547Z,1.83
2023-08-15T18:29:13.330Z,1.90
2023-08-15T18:31:42.552Z,1.88
2023-08-15T18:34:09.769Z,1.85
2023-08-15T18:36:36.377Z,1.77
2023-08-15T18:39:03.726Z,1.45
2023-08-15T18:41:32.937Z,1.60
2023-08-15T18:43:59.563Z,1.80
2023-08-15T18:46:26.213Z,1.63
2023-08-15T18:48:52.905Z,2.40
2023-08-15T18:51:19.458Z,1.80
2023-08-15T18:53:46.126Z,1.50
2023-08-15T18:56:13.752Z,1.80
2023-08-15T18:58:42.773Z,1.92
2023-08-15T19:01:09.346Z,2.00
2023-08-15T19:03:36.062Z,2.03
2023-08-15T19:06:06.817Z,2.20
2023-08-15T19:08:36.920Z,2.30
2023-08-15T19:11:04.018Z,2.33
2023-08-15T19:13:30.667Z,2.60
2023-08-15T19:15:57.287Z,2.60
2023-08-15T19:18:24.025Z,2.70
2023-08-15T19:20:50.616Z,3.00
2023-08-15T19:23:17.199Z,2.78
2023-08-15T19:25:43.755Z,2.65
2023-08-15T19:28:10.413Z,2.97
2023-08-15T19:30:39.179Z,3.15
2023-08-15T19:33:05.859Z,3.00
2023-08-15T19:35:32.506Z,2.83
2023-08-15T19:37:59.073Z,2.97
2023-08-15T19:40:25.631Z,2.80
2023-08-15T19:42:52.188Z,3.10
2023-08-15T19:45:18.938Z,3.38
2023-08-15T19:47:45.556Z,2.92
2023-08-15T19:50:12.414Z,3.20
2023-08-15T19:52:43.155Z,3.10
2023-08-15T19:55:10.180Z,2.78
2023-08-15T19:57:36.748Z,3.00
2023-08-15T20:00:05.940Z,3.45
2023-08-15T20:02:34.330Z,2.70
2023-08-15T20:05:01.185Z,2.88
2023-08-15T20:07:28.007Z,2.90
2023-08-15T20:10:08.397Z,3.20
2023-08-15T20:12:36.958Z,3.05
2023-08-15T20:15:04.509Z,3.20
2023-08-15T20:17:31.218Z,3.20
2023-08-15T20:19:57.841Z,2.83
2023-08-15T20:22:24.910Z,3.33
2023-08-15T20:24:51.827Z,3.22
2023-08-15T20:27:18.508Z,3.60
2023-08-15T20:29:45.509Z,3.28
2023-08-15T20:32:12.165Z,3.42
2023-08-15T20:34:38.908Z,3.08
2023-08-15T20:37:05.898Z,3.20
2023-08-15T20:39:32.435Z,3.15
2023-08-15T20:41:59.672Z,3.00
2023-08-15T20:44:26.343Z,3.15
2023-08-15T20:46:52.907Z,2.75
2023-08-15T20:49:19.567Z,3.00
2023-08-15T20:51:46.161Z,2.85
2023-08-15T20:54:12.901Z,3.03
2023-08-15T20:56:39.583Z,3.03
2023-08-15T20:59:06.322Z,2.90
2023-08-15T21:01:32.951Z,3.10
2023-08-15T21:04:00.856Z,3.17
2023-08-15T21:06:28.115Z,2.90
2023-08-15T21:08:54.772Z,3.10
2023-08-15T21:11:21.534Z,2.75
2023-08-15T21:13:48.793Z,2.95
2023-08-15T21:16:15.429Z,2.88
2023-08-15T21:18:41.982Z,2.60
2023-08-15T21:21:08.595Z,2.80
2023-08-15T21:23:35.735Z,2.80
2023-08-15T21:26:02.767Z,2.90
2023-08-15T21:28:29.362Z,2.85
2023-08-15T21:30:56.550Z,2.58
2023-08-15T21:33:23.748Z,2.55
2023-08-15T21:35:53.466Z,2.50
2023-08-15T21:38:20.613Z,2.38
2023-08-15T21:40:48.505Z,2.42
2023-08-15T21:43:15.471Z,2.40
2023-08-15T21:45:43.162Z,2.30
2023-08-15T21:48:10.220Z,2.63
2023-08-15T21:50:37.537Z,2.45
2023-08-15T21:53:04.441Z,2.35
2023-08-15T21:55:33.452Z,2.10
2023-08-15T21:58:00.023Z,2.35
2023-08-15T22:00:28.190Z,2.20
2023-08-15T22:02:57.946Z,2.33
2023-08-15T22:05:26.539Z,2.40
2023-08-15T22:07:54.034Z,2.17
2023-08-15T22:10:21.959Z,2.53
2023-08-15T22:12:49.969Z,2.35
2023-08-15T22:15:20.651Z,2.38
2023-08-15T22:17:54.589Z,2.40
2023-08-15T22:20:27.497Z,2.70
2023-08-15T22:22:54.090Z,2.20
2023-08-15T22:25:21.563Z,2.17
2023-08-15T22:27:49.888Z,2.40
2023-08-15T22:30:16.778Z,2.47
2023-08-15T22:32:43.344Z,2.28
2023-08-15T22:35:10.373Z,2.35
2023-08-15T22:37:36.927Z,2.25
2023-08-15T22:40:04.951Z,2.20
2023-08-15T22:42:32.571Z,2.20
2023-08-15T22:44:59.223Z,2.40
2023-08-15T22:47:25.983Z,2.10
2023-08-15T22:49:52.568Z,2.63
2023-08-15T22:52:19.312Z,2.25
2023-08-15T22:54:45.874Z,2.30
2023-08-15T22:57:12.556Z,2.53
2023-08-15T22:59:39.090Z,2.50
2023-08-15T23:02:05.602Z,2.58
2023-08-15T23:04:32.142Z,2.25
2023-08-15T23:06:58.718Z,2.30
2023-08-15T23:09:25.256Z,2.35
2023-08-15T23:11:51.803Z,2.50
2023-08-15T23:14:18.308Z,2.13
2023-08-15T23:16:45.048Z,2.38
2023-08-15T23:19:11.678Z,2.13
2023-08-15T23:21:38.228Z,2.42
2023-08-15T23:24:06.179Z,2.92
2023-08-15T23:26:32.709Z,2.42
2023-08-15T23:28:59.372Z,2.38
2023-08-15T23:31:36.640Z,2.20
2023-08-15T23:34:07.385Z,2.28
2023-08-15T23:36:34.350Z,2.60
2023-08-15T23:39:01.376Z,2.38
2023-08-15T23:41:28.752Z,2.58
2023-08-15T23:43:55.353Z,2.40
2023-08-15T23:46:23.590Z,2.72
2023-08-15T23:48:51.453Z,2.42
2023-08-15T23:51:19.059Z,2.33
2023-08-15T23:53:48.382Z,2.53
2023-08-15T23:56:18.291Z,2.97
2023-08-15T23:58:46.218Z,3.00
